createdAt,value
2023-02-11T00:01:00.695Z,49.17
2023-02-11T00:03:27.599Z,47.27
2023-02-11T00:06:03.652Z,49.10
2023-02-11T00:08:30.666Z,43.37
2023-02-11T00:10:58.890Z,50.50
2023-02-11T00:13:25.726Z,42.83
2023-02-11T00:15:53.700Z,47.03
2023-02-11T00:18:20.961Z,48.40
2023-02-11T00:20:47.844Z,41.83
2023-02-11T00:23:15.472Z,45.37
2023-02-11T00:25:43.793Z,45.03
2023-02-11T00:28:11.296Z,45.23
2023-02-11T00:30:38.313Z,38.93
2023-02-11T00:33:05.229Z,38.27
2023-02-11T00:35:32.100Z,44.27
2023-02-11T00:37:58.961Z,44.27
2023-02-11T00:40:25.839Z,38.73
2023-02-11T00:42:52.624Z,46.83
2023-02-11T00:45:21.285Z,43.03
2023-02-11T00:47:48.432Z,36.90
2023-02-11T00:50:15.440Z,39.10
2023-02-11T00:52:42.338Z,39.47
2023-02-11T00:55:09.671Z,34.87
2023-02-11T00:57:36.558Z,35.90
2023-02-11T01:00:05.852Z,34.87
2023-02-11T01:02:32.916Z,36.60
2023-02-11T01:05:00.309Z,35.27
2023-02-11T01:07:28.170Z,38.27
2023-02-11T01:09:55.048Z,38.47
2023-02-11T01:12:21.905Z,42.00
2023-02-11T01:14:48.851Z,39.00
2023-02-11T01:17:15.958Z,35.67
2023-02-11T01:19:42.887Z,38.73
2023-02-11T01:22:09.907Z,42.73
2023-02-11T01:24:36.758Z,38.87
2023-02-11T01:27:03.720Z,38.27
2023-02-11T01:29:30.597Z,40.93
2023-02-11T01:31:57.559Z,38.10
2023-02-11T01:34:24.403Z,36.30
2023-02-11T01:36:51.260Z,31.17
2023-02-11T01:39:18.149Z,34.17
2023-02-11T01:41:45.004Z,37.40
2023-02-11T01:44:40.264Z,34.47
2023-02-11T01:47:07.680Z,30.27
2023-02-11T01:49:39.601Z,36.10
2023-02-11T01:52:13.507Z,31.87
2023-02-11T01:55:05.115Z,33.93
2023-02-11T01:57:35.483Z,36.63
2023-02-11T02:00:24.295Z,28.40
2023-02-11T02:03:06.360Z,34.10
2023-02-11T02:05:56.977Z,29.23
2023-02-11T02:08:46.991Z,26.20
2023-02-11T02:11:14.084Z,28.60
2023-02-11T02:13:40.992Z,27.77
2023-02-11T02:16:13.699Z,29.00
2023-02-11T02:19:00.133Z,28.40
2023-02-11T02:21:32.739Z,28.57
2023-02-11T02:24:13.867Z,27.67
2023-02-11T02:27:02.784Z,26.50
2023-02-11T02:29:57.253Z,27.80
2023-02-11T02:32:39.280Z,24.70
2023-02-11T02:35:13.485Z,22.40
2023-02-11T02:37:55.444Z,22.37
2023-02-11T02:40:50.767Z,28.70
2023-02-11T02:43:19.590Z,22.67
2023-02-11T02:45:46.424Z,26.80
2023-02-11T02:48:24.085Z,24.87
2023-02-11T02:50:55.340Z,25.40
2023-02-11T02:53:51.052Z,25.03
2023-02-11T02:56:35.291Z,27.70
2023-02-11T02:59:29.717Z,30.47
2023-02-11T03:02:12.696Z,29.20
2023-02-11T03:04:52.458Z,26.63
2023-02-11T03:07:27.740Z,24.73
2023-02-11T03:10:09.329Z,22.73
2023-02-11T03:12:37.615Z,25.67
2023-02-11T03:15:06.876Z,24.87
2023-02-11T03:17:36.196Z,25.20
2023-02-11T03:20:06.011Z,26.40
2023-02-11T03:22:41.510Z,24.43
2023-02-11T03:25:09.673Z,25.03
2023-02-11T03:27:48.454Z,27.53
2023-02-11T03:30:30.307Z,25.43
2023-02-11T03:33:31.043Z,24.50
2023-02-11T03:36:02.693Z,23.77
2023-02-11T03:38:38.134Z,26.47
2023-02-11T03:41:08.108Z,27.27
2023-02-11T03:43:40.855Z,22.63
2023-02-11T03:46:10.779Z,23.53
2023-02-11T03:48:42.369Z,25.77
2023-02-11T03:51:12.488Z,24.57
2023-02-11T03:53:43.123Z,25.43
2023-02-11T03:56:14.822Z,22.97
2023-02-11T03:58:41.671Z,22.87
2023-02-11T04:01:09.918Z,28.77
2023-02-11T04:03:36.905Z,25.57
2023-02-11T04:06:03.842Z,24.00
2023-02-11T04:08:31.940Z,25.17
2023-02-11T04:10:58.982Z,26.83
2023-02-11T04:13:26.075Z,31.40
2023-02-11T04:15:53.176Z,28.43
2023-02-11T04:18:20.140Z,27.47
2023-02-11T04:20:47.441Z,27.23
2023-02-11T04:23:14.212Z,28.10
2023-02-11T04:25:41.060Z,29.87
2023-02-11T04:28:07.844Z,25.77
2023-02-11T04:30:34.703Z,31.37
2023-02-11T04:33:01.542Z,30.60
2023-02-11T04:35:28.358Z,30.63
2023-02-11T04:37:55.185Z,28.60
2023-02-11T04:40:21.978Z,31.07
2023-02-11T04:42:48.792Z,30.00
2023-02-11T04:45:15.668Z,29.00
2023-02-11T04:47:42.484Z,33.83
2023-02-11T04:50:09.497Z,30.87
2023-02-11T04:52:36.308Z,32.90
2023-02-11T04:55:03.095Z,30.47
2023-02-11T04:57:29.936Z,30.40
2023-02-11T04:59:56.783Z,32.90
2023-02-11T05:02:23.551Z,31.83
2023-02-11T05:04:50.361Z,36.77
2023-02-11T05:07:17.187Z,30.37
2023-02-11T05:09:44.000Z,33.93
2023-02-11T05:12:10.807Z,31.77
2023-02-11T05:14:37.753Z,35.47
2023-02-11T05:17:04.558Z,30.73
2023-02-11T05:19:32.050Z,34.43
2023-02-11T05:22:03.047Z,30.53
2023-02-11T05:24:32.555Z,32.23
2023-02-11T05:26:59.955Z,30.77
2023-02-11T05:29:26.816Z,30.07
2023-02-11T05:31:54.062Z,31.43
2023-02-11T05:34:20.850Z,34.43
2023-02-11T05:36:47.722Z,29.23
2023-02-11T05:39:14.533Z,31.40
2023-02-11T05:41:41.397Z,32.20
2023-02-11T05:44:08.254Z,31.43
2023-02-11T05:46:35.144Z,30.33
2023-02-11T05:49:02.335Z,29.30
2023-02-11T05:51:29.276Z,35.13
2023-02-11T05:53:56.118Z,33.90
2023-02-11T05:56:22.891Z,32.23
2023-02-11T05:58:49.794Z,31.57
2023-02-11T06:01:16.765Z,31.47
2023-02-11T06:03:43.576Z,29.03
2023-02-11T06:06:12.363Z,29.70
2023-02-11T06:08:39.609Z,34.23
2023-02-11T06:11:06.740Z,32.60
2023-02-11T06:13:33.629Z,34.67
2023-02-11T06:16:02.090Z,31.70
2023-02-11T06:18:29.537Z,32.90
2023-02-11T06:20:56.717Z,31.63
2023-02-11T06:23:23.735Z,36.60
2023-02-11T06:25:52.136Z,37.40
2023-02-11T06:28:19.895Z,31.23
2023-02-11T06:30:46.815Z,31.43
2023-02-11T06:33:13.647Z,31.47
2023-02-11T06:35:44.469Z,35.17
2023-02-11T06:38:14.508Z,33.63
2023-02-11T06:40:41.965Z,33.23
2023-02-11T06:43:08.770Z,34.47
2023-02-11T06:45:35.552Z,33.87
2023-02-11T06:48:02.376Z,34.00
2023-02-11T06:50:29.321Z,35.87
2023-02-11T06:52:56.165Z,38.13
2023-02-11T06:55:22.975Z,37.10
2023-02-11T06:57:49.796Z,36.10
2023-02-11T07:00:17.070Z,36.30
2023-02-11T07:02:44.087Z,38.57
2023-02-11T07:05:11.150Z,34.93
2023-02-11T07:07:38.276Z,40.03
2023-02-11T07:10:05.937Z,34.20
2023-02-11T07:12:32.851Z,39.33
2023-02-11T07:15:02.938Z,39.13
2023-02-11T07:17:29.878Z,35.73
2023-02-11T07:19:56.784Z,37.77
2023-02-11T07:22:23.612Z,40.50
2023-02-11T07:24:50.566Z,38.87
2023-02-11T07:27:17.453Z,40.97
2023-02-11T07:29:46.107Z,37.13
2023-02-11T07:32:13.879Z,39.47
2023-02-11T07:34:40.771Z,38.23
2023-02-11T07:37:07.891Z,38.17
2023-02-11T07:39:34.774Z,39.03
2023-02-11T07:42:01.589Z,39.93
2023-02-11T07:44:28.377Z,39.83
2023-02-11T07:46:55.521Z,42.03
2023-02-11T07:49:22.313Z,46.37
2023-02-11T07:51:51.138Z,42.87
2023-02-11T07:54:18.148Z,42.90
2023-02-11T07:56:45.140Z,43.77
2023-02-11T07:59:12.507Z,48.53
2023-02-11T08:01:40.442Z,47.63
2023-02-11T08:04:07.285Z,50.60
2023-02-11T08:06:35.441Z,49.63
2023-02-11T08:09:08.006Z,50.27
2023-02-11T08:11:35.335Z,44.50
2023-02-11T08:14:02.361Z,53.50
2023-02-11T08:16:35.680Z,50.67
2023-02-11T08:19:06.388Z,57.90
2023-02-11T08:21:33.257Z,52.83
2023-02-11T08:24:03.060Z,59.50
2023-02-11T08:26:33.171Z,55.50
2023-02-11T08:29:00.876Z,58.43
2023-02-11T08:31:34.554Z,55.30
2023-02-11T08:34:05.489Z,63.07
2023-02-11T08:36:35.514Z,62.03
2023-02-11T08:39:18.706Z,61.97
2023-02-11T08:41:52.601Z,63.60
2023-02-11T08:44:21.343Z,65.10
2023-02-11T08:46:48.652Z,60.10
2023-02-11T08:49:16.020Z,58.97
2023-02-11T08:51:42.926Z,62.27
2023-02-11T08:54:10.180Z,67.80
2023-02-11T08:56:38.546Z,73.53
2023-02-11T08:59:06.406Z,71.00
2023-02-11T09:01:36.837Z,65.37
2023-02-11T09:04:04.911Z,68.23
2023-02-11T09:06:32.290Z,66.23
2023-02-11T09:09:02.506Z,65.37
2023-02-11T09:11:35.193Z,66.87
2023-02-11T09:14:03.633Z,68.43
2023-02-11T09:16:33.156Z,65.80
2023-02-11T09:19:01.974Z,64.87
2023-02-11T09:21:29.765Z,72.07
2023-02-11T09:23:56.840Z,61.43
2023-02-11T09:26:27.350Z,59.93
2023-02-11T09:28:54.273Z,60.03
2023-02-11T09:31:24.201Z,62.30
2023-02-11T09:33:53.713Z,58.20
2023-02-11T09:36:23.549Z,55.73
2023-02-11T09:38:54.700Z,54.03
2023-02-11T09:41:52.286Z,59.57
2023-02-11T09:44:23.258Z,58.40
2023-02-11T09:47:02.014Z,54.10
2023-02-11T09:49:42.939Z,56.07
2023-02-11T09:52:15.587Z,54.63
2023-02-11T09:54:57.859Z,55.03
2023-02-11T09:57:34.486Z,58.03
2023-02-11T10:00:02.440Z,60.97
2023-02-11T10:02:45.076Z,57.37
2023-02-11T10:05:37.568Z,59.93
2023-02-11T10:08:16.563Z,63.53
2023-02-11T10:10:54.362Z,64.10
2023-02-11T10:13:51.183Z,67.67
2023-02-11T10:16:26.903Z,64.23
2023-02-11T10:19:18.794Z,62.07
2023-02-11T10:21:58.529Z,65.33
2023-02-11T10:24:28.354Z,64.37
2023-02-11T10:26:55.746Z,69.50
2023-02-11T10:29:38.605Z,65.57
2023-02-11T10:32:15.823Z,62.67
2023-02-11T10:34:42.739Z,66.37
2023-02-11T10:37:13.445Z,64.97
2023-02-11T10:39:41.270Z,73.97
2023-02-11T10:42:12.439Z,62.17
2023-02-11T10:44:46.230Z,63.10
2023-02-11T10:47:22.892Z,66.30
2023-02-11T10:49:50.064Z,60.63
2023-02-11T10:52:25.856Z,62.90
2023-02-11T10:55:14.873Z,59.67
2023-02-11T10:58:00.874Z,67.63
2023-02-11T11:00:41.063Z,64.40
2023-02-11T11:03:20.767Z,60.87
2023-02-11T11:05:57.384Z,59.07
2023-02-11T11:08:46.674Z,69.87
2023-02-11T11:11:21.381Z,64.97
2023-02-11T11:13:54.445Z,66.33
2023-02-11T11:16:39.125Z,65.77
2023-02-11T11:19:08.866Z,64.00
2023-02-11T11:21:35.640Z,69.43
2023-02-11T11:24:03.955Z,68.93
2023-02-11T11:26:46.815Z,73.13
2023-02-11T11:29:28.705Z,77.90
2023-02-11T11:31:59.536Z,71.40
2023-02-11T11:34:29.453Z,76.63
2023-02-11T11:36:58.183Z,75.53
2023-02-11T11:39:28.719Z,75.40
2023-02-11T11:42:01.495Z,80.00
2023-02-11T11:44:33.733Z,79.63
2023-02-11T11:47:12.584Z,78.23
2023-02-11T11:50:00.351Z,76.87
2023-02-11T11:52:42.406Z,75.77
2023-02-11T11:55:16.272Z,79.10
2023-02-11T11:57:43.882Z,79.97
2023-02-11T12:00:17.755Z,89.03
2023-02-11T12:02:56.733Z,85.00
2023-02-11T12:05:36.135Z,84.47
2023-02-11T12:08:17.911Z,87.30
2023-02-11T12:11:09.194Z,84.30
2023-02-11T12:13:59.239Z,84.17
2023-02-11T12:16:53.373Z,83.57
2023-02-11T12:19:59.679Z,81.53
2023-02-11T12:22:52.541Z,88.43
2023-02-11T12:25:30.917Z,81.70
2023-02-11T12:28:26.160Z,77.23
2023-02-11T12:31:19.361Z,84.27
2023-02-11T12:34:15.194Z,79.10
2023-02-11T12:37:08.078Z,84.97
2023-02-11T12:39:37.789Z,76.43
2023-02-11T12:42:43.024Z,76.50
2023-02-11T12:45:12.538Z,76.10
2023-02-11T12:47:58.186Z,83.63
2023-02-11T12:51:09.708Z,73.77
2023-02-11T12:53:54.742Z,74.90
2023-02-11T12:56:28.257Z,76.97
2023-02-11T12:58:58.970Z,73.40
2023-02-11T13:01:39.638Z,72.87
2023-02-11T13:04:16.272Z,67.47
2023-02-11T13:06:59.488Z,73.33
2023-02-11T13:09:43.570Z,66.80
2023-02-11T13:12:31.937Z,73.63
2023-02-11T13:15:04.721Z,69.53
2023-02-11T13:17:48.327Z,64.73
2023-02-11T13:20:21.577Z,69.97
2023-02-11T13:23:01.851Z,62.73
2023-02-11T13:25:42.809Z,66.03
2023-02-11T13:28:25.211Z,72.10
2023-02-11T13:31:03.504Z,67.63
2023-02-11T13:33:39.687Z,65.67
2023-02-11T13:36:06.671Z,74.10
2023-02-11T13:38:34.253Z,73.77
2023-02-11T13:41:30.509Z,70.33
2023-02-11T13:44:22.340Z,73.13
2023-02-11T13:47:01.561Z,77.07
2023-02-11T13:49:41.404Z,76.90
2023-02-11T13:52:38.024Z,81.53
2023-02-11T13:55:13.916Z,75.80
2023-02-11T13:57:42.666Z,74.90
2023-02-11T14:00:34.638Z,77.67
2023-02-11T14:03:29.403Z,79.00
2023-02-11T14:07:05.726Z,81.33
2023-02-11T14:09:40.223Z,81.47
2023-02-11T14:12:36.263Z,81.90
2023-02-11T14:15:07.901Z,83.93
2023-02-11T14:17:35.068Z,85.40
2023-02-11T14:20:04.757Z,83.77
2023-02-11T14:22:44.413Z,83.83
2023-02-11T14:25:38.581Z,83.77
2023-02-11T14:28:32.911Z,73.07
2023-02-11T14:31:13.384Z,75.07
2023-02-11T14:33:49.225Z,84.73
2023-02-11T14:36:53.457Z,78.67
2023-02-11T14:39:29.125Z,78.63
2023-02-11T14:41:57.409Z,79.33
2023-02-11T14:44:30.101Z,74.23
2023-02-11T14:46:58.133Z,75.33
2023-02-11T14:49:37.992Z,70.77
2023-02-11T14:52:17.208Z,73.60
2023-02-11T14:54:45.192Z,71.57
2023-02-11T14:57:19.207Z,72.17
2023-02-11T15:00:02.935Z,73.77
2023-02-11T15:02:34.532Z,74.00
2023-02-11T15:05:19.415Z,73.20
2023-02-11T15:07:55.785Z,75.30
2023-02-11T15:10:36.092Z,72.23
2023-02-11T15:13:04.410Z,72.80
2023-02-11T15:15:36.948Z,79.60
2023-02-11T15:18:05.267Z,71.97
2023-02-11T15:20:33.604Z,71.70
2023-02-11T15:23:10.074Z,74.63
2023-02-11T15:25:55.547Z,75.73
2023-02-11T15:28:29.353Z,74.53
2023-02-11T15:30:58.360Z,78.97
2023-02-11T15:33:30.505Z,74.27
2023-02-11T15:35:58.253Z,76.70
2023-02-11T15:38:25.163Z,74.43
2023-02-11T15:41:00.432Z,75.57
2023-02-11T15:43:46.586Z,83.00
2023-02-11T15:46:16.772Z,76.03
2023-02-11T15:48:47.508Z,75.23
2023-02-11T15:51:31.645Z,77.47
2023-02-11T15:54:15.748Z,75.50
2023-02-11T15:56:44.856Z,74.10
2023-02-11T15:59:35.993Z,71.97
2023-02-11T16:02:23.429Z,75.13
2023-02-11T16:05:26.985Z,75.13
2023-02-11T16:07:54.302Z,74.73
2023-02-11T16:10:36.648Z,78.10
2023-02-11T16:13:09.642Z,71.40
2023-02-11T16:15:47.099Z,70.20
2023-02-11T16:18:38.746Z,73.90
2023-02-11T16:21:14.842Z,67.77
2023-02-11T16:23:44.643Z,71.57
2023-02-11T16:26:43.174Z,75.00
2023-02-11T16:29:28.073Z,68.73
2023-02-11T16:32:10.245Z,70.47
2023-02-11T16:34:37.354Z,68.83
2023-02-11T16:37:05.839Z,72.23
2023-02-11T16:39:33.520Z,64.03
2023-02-11T16:42:05.808Z,64.90
2023-02-11T16:44:35.020Z,65.17
2023-02-11T16:47:09.411Z,62.60
2023-02-11T16:49:41.411Z,61.87
2023-02-11T16:52:13.757Z,64.13
2023-02-11T16:54:40.647Z,64.67
2023-02-11T16:57:19.036Z,65.60
2023-02-11T16:59:46.610Z,63.17
2023-02-11T17:02:23.989Z,62.20
2023-02-11T17:04:56.452Z,63.30
2023-02-11T17:07:23.315Z,60.50
2023-02-11T17:09:52.259Z,62.13
2023-02-11T17:12:19.800Z,61.03
2023-02-11T17:14:50.765Z,60.00
2023-02-11T17:17:29.823Z,65.70
2023-02-11T17:19:59.862Z,56.83
2023-02-11T17:22:26.768Z,62.70
2023-02-11T17:24:57.111Z,63.33
2023-02-11T17:27:24.146Z,61.50
2023-02-11T17:29:51.977Z,60.07
2023-02-11T17:32:18.884Z,55.63
2023-02-11T17:34:45.806Z,55.33
2023-02-11T17:37:12.642Z,60.03
2023-02-11T17:39:40.437Z,56.87
2023-02-11T17:42:08.657Z,52.57
2023-02-11T17:44:35.941Z,54.10
2023-02-11T17:47:09.245Z,57.50
2023-02-11T17:49:36.379Z,53.30
2023-02-11T17:52:03.709Z,54.80
2023-02-11T17:54:31.500Z,51.27
2023-02-11T17:56:58.722Z,52.03
2023-02-11T17:59:26.554Z,50.27
2023-02-11T18:01:53.456Z,53.10
2023-02-11T18:04:20.595Z,54.13
2023-02-11T18:06:47.853Z,54.67
2023-02-11T18:09:15.307Z,53.80
2023-02-11T18:11:42.229Z,51.57
2023-02-11T18:14:10.532Z,52.17
2023-02-11T18:16:39.413Z,50.60
2023-02-11T18:19:07.703Z,53.90
2023-02-11T18:21:34.898Z,57.50
2023-02-11T18:24:06.535Z,56.57
2023-02-11T18:26:34.697Z,53.07
2023-02-11T18:29:02.020Z,56.73
2023-02-11T18:31:29.993Z,52.03
2023-02-11T18:33:57.024Z,52.87
2023-02-11T18:36:29.618Z,53.23
2023-02-11T18:38:58.409Z,58.00
2023-02-11T18:41:25.294Z,52.17
2023-02-11T18:43:52.762Z,54.27
2023-02-11T18:46:19.894Z,56.00
2023-02-11T18:48:46.788Z,55.73
2023-02-11T18:51:18.747Z,53.73
2023-02-11T18:53:46.331Z,54.57
2023-02-11T18:56:15.876Z,52.93
2023-02-11T18:58:42.916Z,51.63
2023-02-11T19:01:19.618Z,55.20
2023-02-11T19:03:47.324Z,51.83
2023-02-11T19:06:35.409Z,47.43
2023-02-11T19:09:06.641Z,49.27
2023-02-11T19:11:49.918Z,49.77
2023-02-11T19:14:20.995Z,45.20
2023-02-11T19:16:50.586Z,46.53
2023-02-11T19:19:18.558Z,47.67
2023-02-11T19:21:46.448Z,44.50
2023-02-11T19:24:15.645Z,41.90
2023-02-11T19:26:43.140Z,45.87
2023-02-11T19:29:10.069Z,40.97
2023-02-11T19:31:37.183Z,41.33
2023-02-11T19:34:04.944Z,43.47
2023-02-11T19:36:32.022Z,37.00
2023-02-11T19:39:03.909Z,37.23
2023-02-11T19:41:31.900Z,37.77
2023-02-11T19:43:58.774Z,34.07
2023-02-11T19:46:28.434Z,42.17
2023-02-11T19:48:55.459Z,37.27
2023-02-11T19:51:22.488Z,35.10
2023-02-11T19:53:49.424Z,32.77
2023-02-11T19:56:19.176Z,42.47
2023-02-11T19:58:47.269Z,30.30
2023-02-11T20:01:22.162Z,29.97
2023-02-11T20:03:50.618Z,30.20
2023-02-11T20:06:23.288Z,23.07
2023-02-11T20:08:58.812Z,27.53
2023-02-11T20:11:28.246Z,23.90
2023-02-11T20:13:55.763Z,28.03
2023-02-11T20:16:26.999Z,20.37
2023-02-11T20:19:00.953Z,21.93
2023-02-11T20:21:32.774Z,25.80
2023-02-11T20:24:00.035Z,27.87
2023-02-11T20:26:29.483Z,22.37
2023-02-11T20:28:58.057Z,23.63
2023-02-11T20:31:25.240Z,22.50
2023-02-11T20:33:52.373Z,24.77
2023-02-11T20:36:21.983Z,24.27
2023-02-11T20:38:49.327Z,22.80
2023-02-11T20:41:20.397Z,27.20
2023-02-11T20:43:51.915Z,21.23
2023-02-11T20:46:23.925Z,22.23
2023-02-11T20:48:52.881Z,20.93
2023-02-11T20:51:22.588Z,23.23
2023-02-11T20:53:51.242Z,23.83
2023-02-11T20:56:23.981Z,27.57
2023-02-11T20:58:51.382Z,21.33
2023-02-11T21:01:22.004Z,25.83
2023-02-11T21:03:58.219Z,22.70
2023-02-11T21:06:27.825Z,23.03
2023-02-11T21:08:54.652Z,25.50
2023-02-11T21:11:22.521Z,23.57
2023-02-11T21:13:49.805Z,21.23
2023-02-11T21:16:20.524Z,18.70
2023-02-11T21:18:48.479Z,21.43
2023-02-11T21:21:16.405Z,20.50
2023-02-11T21:23:43.419Z,17.70
2023-02-11T21:26:10.942Z,22.93
2023-02-11T21:28:40.892Z,22.43
2023-02-11T21:31:08.335Z,19.20
2023-02-11T21:33:35.459Z,21.53
2023-02-11T21:36:04.800Z,17.87
2023-02-11T21:38:31.838Z,11.73
2023-02-11T21:41:04.556Z,11.03
2023-02-11T21:43:31.724Z,10.73
2023-02-11T21:45:59.037Z,5.67
2023-02-11T21:48:26.669Z,3.93
2023-02-11T21:50:54.324Z,6.80
2023-02-11T21:53:21.160Z,3.53
2023-02-11T21:55:54.919Z,4.57
2023-02-11T21:58:22.065Z,3.87
2023-02-11T22:01:13.702Z,3.40
2023-02-11T22:03:41.310Z,5.00
2023-02-11T22:06:10.464Z,4.00
2023-02-11T22:08:38.154Z,6.23
2023-02-11T22:11:07.222Z,2.57
2023-02-11T22:13:38.350Z,3.17
2023-02-11T22:16:08.478Z,3.67
2023-02-11T22:18:35.597Z,2.37
2023-02-11T22:21:11.644Z,2.47
2023-02-11T22:23:39.622Z,3.30
2023-02-11T22:26:12.135Z,2.70
2023-02-11T22:28:40.674Z,7.03
2023-02-11T22:31:12.955Z,6.20
2023-02-11T22:33:40.165Z,4.33
2023-02-11T22:36:12.211Z,5.23
2023-02-11T22:38:39.138Z,4.90
2023-02-11T22:41:08.898Z,3.00
2023-02-11T22:43:36.620Z,5.40
2023-02-11T22:46:05.582Z,2.77
2023-02-11T22:48:33.465Z,3.53
2023-02-11T22:51:19.535Z,2.67
2023-02-11T22:53:55.291Z,3.00
2023-02-11T22:56:22.263Z,3.00
2023-02-11T22:58:49.577Z,2.53
2023-02-11T23:01:17.392Z,3.73
2023-02-11T23:03:44.675Z,4.20
2023-02-11T23:06:12.076Z,3.17
2023-02-11T23:08:40.273Z,3.93
2023-02-11T23:11:10.062Z,2.97
2023-02-11T23:13:39.645Z,4.03
2023-02-11T23:16:09.173Z,3.17
2023-02-11T23:18:37.711Z,3.50
2023-02-11T23:21:10.096Z,3.37
2023-02-11T23:23:38.247Z,1.50
2023-02-11T23:26:05.306Z,2.50
2023-02-11T23:28:32.154Z,1.83
2023-02-11T23:30:59.536Z,1.67
2023-02-11T23:33:29.735Z,2.47
2023-02-11T23:35:56.758Z,1.23
2023-02-11T23:38:23.749Z,2.97
2023-02-11T23:40:50.544Z,1.43
2023-02-11T23:43:17.404Z,2.43
2023-02-11T23:45:44.171Z,1.73
2023-02-11T23:48:11.048Z,1.67
2023-02-11T23:50:39.738Z,1.67
2023-02-11T23:53:06.575Z,1.40
2023-02-11T23:55:39.931Z,3.60
2023-02-11T23:58:06.816Z,3.63
